GAFD weather

Faladie Airport
Faladie, Koulikoro Region, Mali

Public forecast

Using degrees Celsius for public forecast. Weather courtesy of forecast.io.

METAR (pilot weather report)

Closest report is Modibo Keita International Airport, 43.3 nm (80.1 km) SSE. Retrieved 2019/03/21 04:30 UTC (42 minutes ago):

GABS 210430Z VRB02KT CAVOK 27/22 Q1010 NOSIG

TAF (pilot weather forecast)

Forecast is more than 12 hours old.

Closest forecast is Modibo Keita International Airport, 43.3 nm (80.1 km) SSE. Retrieved 2019/03/20 00:51 UTC (1 day ago):

TAF GABS 202300Z 2100/2206 16010KT CAVOK TEMPO 2106/2610 26010KT BECMG 2111/2112 04008KT